Time;durP1;ratioP1;P1;durP2;ratioP2;P2;SDS_P1;SDS_P2;PMS_P1;PMS_P2;Temp;Humidity;BMP_temperature;BMP_pressure;BME280_temperature;BME280_humidity;BME280_pressure;Samples;Min_cycle;Max_cycle;Signal;HPM_P1;HPM_P2
2023/08/08 00:01:10;;;;;;;;;;;;;;;13.13;100.00;101412.84;5008669;28;19921;-73
2023/08/08 00:03:36;;;;;;;;;;;;;;;13.02;100.00;101394.00;5013220;28;19972;-74
2023/08/08 00:06:01;;;;;;;;;;;;;;;13.22;100.00;101416.69;5011275;28;20019;-74
2023/08/08 00:08:26;;;;;;;;;;;;;;;13.24;100.00;101408.44;5026240;28;19917;-73
2023/08/08 00:10:51;;;;;;;;;;;;;;;13.18;100.00;101409.81;5008529;28;19925;-73
2023/08/08 00:13:17;;;;;;;;;;;;;;;13.22;100.00;101410.41;5010052;28;19921;-73
2023/08/08 00:15:42;;;;;;;;;;;;;;;13.16;100.00;101400.97;5010492;28;19956;-74
2023/08/08 00:18:07;;;;;;;;;;;;;;;13.23;100.00;101404.03;5011131;28;20016;-75
2023/08/08 00:20:32;;;;;;;;;;;;;;;13.39;100.00;101404.50;5009552;28;19995;-74
2023/08/08 00:22:57;;;;;;;;;;;;;;;13.45;100.00;101404.03;5011298;28;19972;-76
2023/08/08 00:25:23;;;;;;;;;;;;;;;13.44;100.00;101396.09;5007925;28;20691;-74
2023/08/08 00:27:49;;;;;;;;;;;;;;;13.41;100.00;101396.34;5010744;28;20292;-75
2023/08/08 00:30:14;;;;;;;;;;;;;;;13.39;100.00;101395.56;5013369;28;19921;-74
2023/08/08 00:32:39;;;;;;;;;;;;;;;13.56;100.00;101402.31;5014384;28;19928;-75
2023/08/08 00:35:04;;;;;;;;;;;;;;;13.52;100.00;101401.69;5026307;28;19928;-75
2023/08/08 00:37:30;;;;;;;;;;;;;;;13.50;100.00;101385.66;5026698;28;21134;-73
2023/08/08 00:39:55;;;;;;;;;;;;;;;13.64;100.00;101399.84;5006850;28;19925;-75
2023/08/08 00:42:20;;;;;;;;;;;;;;;13.68;100.00;101393.22;5024242;28;19954;-75
2023/08/08 00:44:45;;;;;;;;;;;;;;;13.71;100.00;101387.56;5008414;28;20008;-75
2023/08/08 00:47:11;;;;;;;;;;;;;;;13.58;100.00;101378.78;5012744;28;19921;-74
2023/08/08 00:49:36;;;;;;;;;;;;;;;13.54;100.00;101380.84;4997345;28;20322;-73
2023/08/08 00:52:02;;;;;;;;;;;;;;;13.61;100.00;101386.63;5025425;28;19968;-75
2023/08/08 00:54:27;;;;;;;;;;;;;;;13.57;100.00;101387.84;5006628;28;19924;-75
2023/08/08 00:56:52;;;;;;;;;;;;;;;13.54;100.00;101386.25;5029120;28;19933;-75
2023/08/08 00:59:18;;;;;;;;;;;;;;;13.64;100.00;101383.66;5011342;28;19928;-73
2023/08/08 01:01:43;;;;;;;;;;;;;;;13.58;100.00;101381.47;5000779;28;19921;-74
2023/08/08 01:04:08;;;;;;;;;;;;;;;13.63;100.00;101369.31;5012648;28;19982;-73
2023/08/08 01:06:34;;;;;;;;;;;;;;;13.40;100.00;101368.47;5025567;28;19948;-74
2023/08/08 01:09:04;;;;;;;;;;;;;;;13.49;100.00;101369.59;5005632;28;20023;-74
2023/08/08 01:11:29;;;;;;;;;;;;;;;13.43;100.00;101367.41;5025099;28;20012;-73
2023/08/08 01:13:54;;;;;;;;;;;;;;;13.50;100.00;101372.16;5008132;28;19931;-72
2023/08/08 01:16:20;;;;;;;;;;;;;;;13.53;100.00;101372.91;5026884;28;19925;-75
2023/08/08 01:18:46;;;;;;;;;;;;;;;13.57;100.00;101372.50;5007526;28;20446;-75
2023/08/08 01:21:11;;;;;;;;;;;;;;;13.54;100.00;101372.75;5006775;28;20308;-74
2023/08/08 01:23:43;;;;;;;;;;;;;;;13.49;100.00;101370.44;5003842;28;19967;-73
2023/08/08 01:26:09;;;;;;;;;;;;;;;13.50;100.00;101361.38;5024104;28;19936;-74
2023/08/08 01:28:34;;;;;;;;;;;;;;;13.58;100.00;101360.72;5009469;28;19963;-74
2023/08/08 01:30:59;;;;;;;;;;;;;;;13.50;100.00;101377.56;5007382;28;21901;-74
2023/08/08 01:33:25;;;;;;;;;;;;;;;13.57;100.00;101377.06;5028779;28;20557;-75
2023/08/08 01:35:50;;;;;;;;;;;;;;;13.75;100.00;101367.44;5007586;28;19921;-73
2023/08/08 01:38:15;;;;;;;;;;;;;;;13.79;100.00;101362.63;5011410;28;19921;-75
2023/08/08 01:40:41;;;;;;;;;;;;;;;13.83;100.00;101357.84;5023223;28;19928;-74
2023/08/08 01:43:07;;;;;;;;;;;;;;;13.86;100.00;101358.44;4997172;28;20442;-74
2023/08/08 01:45:32;;;;;;;;;;;;;;;13.89;100.00;101363.59;5007014;28;19940;-74
2023/08/08 01:47:57;;;;;;;;;;;;;;;13.98;100.00;101374.59;5025813;28;19921;-73
2023/08/08 01:50:22;;;;;;;;;;;;;;;13.97;100.00;101376.44;5025134;28;19909;-73
2023/08/08 01:52:47;;;;;;;;;;;;;;;13.97;100.00;101378.28;5023359;28;19933;-71
2023/08/08 01:55:13;;;;;;;;;;;;;;;13.96;100.00;101377.41;5007586;28;19929;-72
2023/08/08 01:57:38;;;;;;;;;;;;;;;13.92;100.00;101373.25;5012618;28;20288;-75
2023/08/08 02:00:04;;;;;;;;;;;;;;;13.95;100.00;101381.97;5027769;28;20015;-72
2023/08/08 02:02:30;;;;;;;;;;;;;;;13.84;100.00;101376.59;5027676;28;19963;-72
2023/08/08 02:04:56;;;;;;;;;;;;;;;13.77;100.00;101373.56;5006135;28;19952;-73
2023/08/08 02:07:21;;;;;;;;;;;;;;;13.79;100.00;101368.03;5009807;28;19968;-73
2023/08/08 02:09:46;;;;;;;;;;;;;;;13.64;100.00;101368.31;5024953;28;20001;-75
2023/08/08 02:12:11;;;;;;;;;;;;;;;13.39;100.00;101353.25;5023617;28;19952;-74
2023/08/08 02:14:37;;;;;;;;;;;;;;;13.26;100.00;101357.94;5010306;28;19976;-73
2023/08/08 02:17:02;;;;;;;;;;;;;;;13.30;100.00;101362.97;5008697;28;20003;-73
2023/08/08 02:19:27;;;;;;;;;;;;;;;13.46;100.00;101362.59;5006975;28;19921;-73
2023/08/08 02:21:52;;;;;;;;;;;;;;;13.55;100.00;101362.84;5023087;28;19932;-73
2023/08/08 02:24:18;;;;;;;;;;;;;;;13.59;100.00;101367.84;5026759;28;20009;-73
2023/08/08 02:26:43;;;;;;;;;;;;;;;13.56;100.00;101364.56;5008429;28;19971;-72
2023/08/08 02:29:08;;;;;;;;;;;;;;;13.38;100.00;101361.50;5011920;28;19921;-73
2023/08/08 02:31:33;;;;;;;;;;;;;;;13.31;100.00;101356.59;5007301;28;19928;-73
2023/08/08 02:33:58;;;;;;;;;;;;;;;13.25;100.00;101345.44;5010559;28;19920;-73
2023/08/08 02:36:24;;;;;;;;;;;;;;;13.14;100.00;101339.06;5004800;28;19965;-73
2023/08/08 02:38:53;;;;;;;;;;;;;;;13.12;100.00;101350.97;5010279;28;22017;-72
2023/08/08 02:41:18;;;;;;;;;;;;;;;13.15;100.00;101350.72;5025889;28;20443;-73
2023/08/08 02:43:43;;;;;;;;;;;;;;;13.17;100.00;101356.88;5015376;28;20017;-73
2023/08/08 02:46:08;;;;;;;;;;;;;;;12.99;100.00;101345.72;5015047;28;19944;-73
2023/08/08 02:48:34;;;;;;;;;;;;;;;13.10;100.00;101351.13;5011351;28;19928;-73
2023/08/08 02:50:59;;;;;;;;;;;;;;;13.09;100.00;101357.50;5027918;28;19962;-73
2023/08/08 02:53:24;;;;;;;;;;;;;;;13.14;100.00;101359.81;5028358;28;20356;-72
2023/08/08 02:55:49;;;;;;;;;;;;;;;13.06;100.00;101357.72;5011684;28;20352;-73
2023/08/08 02:58:14;;;;;;;;;;;;;;;13.07;100.00;101337.88;5029672;28;20363;-73
2023/08/08 03:00:40;;;;;;;;;;;;;;;13.05;100.00;101347.94;5010020;28;20414;-74
2023/08/08 03:03:05;;;;;;;;;;;;;;;13.06;100.00;101338.84;5013566;28;20390;-73
2023/08/08 03:05:30;;;;;;;;;;;;;;;13.09;100.00;101333.22;5025612;28;20612;-73
2023/08/08 03:07:55;;;;;;;;;;;;;;;13.06;100.00;101333.47;5028843;28;19926;-74
2023/08/08 03:10:20;;;;;;;;;;;;;;;13.09;100.00;101332.34;5012983;28;19959;-73
2023/08/08 03:12:46;;;;;;;;;;;;;;;13.08;100.00;101339.59;5026678;28;20378;-72
2023/08/08 03:15:11;;;;;;;;;;;;;;;13.09;100.00;101337.75;5013092;28;19921;-73
2023/08/08 03:17:36;;;;;;;;;;;;;;;13.04;100.00;101338.13;5027651;28;19922;-74
2023/08/08 03:20:02;;;;;;;;;;;;;;;13.09;100.00;101332.34;5010157;28;19975;-74
2023/08/08 03:22:28;;;;;;;;;;;;;;;13.00;100.00;101326.72;5013032;28;20295;-73
2023/08/08 03:24:53;;;;;;;;;;;;;;;13.01;100.00;101333.81;5007588;28;20375;-74
2023/08/08 03:27:18;;;;;;;;;;;;;;;13.09;100.00;101326.97;5007795;28;19921;-74
2023/08/08 03:29:43;;;;;;;;;;;;;;;13.07;100.00;101332.50;5014225;28;19971;-74
2023/08/08 03:32:08;;;;;;;;;;;;;;;13.11;100.00;101333.94;5013352;28;20015;-73
2023/08/08 03:34:34;;;;;;;;;;;;;;;13.06;100.00;101338.84;5030105;28;19917;-73
2023/08/08 03:36:59;;;;;;;;;;;;;;;12.83;100.00;101340.69;5031604;28;19921;-74
2023/08/08 03:39:24;;;;;;;;;;;;;;;12.75;100.00;101347.53;5028565;28;20386;-74
2023/08/08 03:41:50;;;;;;;;;;;;;;;12.78;100.00;101341.06;5030801;28;20132;-73
2023/08/08 03:44:15;;;;;;;;;;;;;;;12.71;100.00;101335.28;5031989;28;19920;-74
2023/08/08 03:46:40;;;;;;;;;;;;;;;12.73;100.00;101337.88;5015748;28;19931;-75
2023/08/08 03:49:05;;;;;;;;;;;;;;;12.74;100.00;101336.91;5015009;28;19927;-73
2023/08/08 03:51:31;;;;;;;;;;;;;;;12.73;100.00;101330.63;5015727;28;19933;-73
2023/08/08 03:53:56;;;;;;;;;;;;;;;12.66;100.00;101328.56;5014292;28;19921;-74
2023/08/08 03:56:21;;;;;;;;;;;;;;;12.72;100.00;101336.16;5015406;28;19913;-74
2023/08/08 03:58:46;;;;;;;;;;;;;;;12.70;100.00;101330.03;5010136;28;19986;-73
2023/08/08 04:01:11;;;;;;;;;;;;;;;12.60;100.00;101337.97;5014415;28;20395;-73
2023/08/08 04:03:37;;;;;;;;;;;;;;;12.65;100.00;101330.41;5011982;28;20019;-72
2023/08/08 04:06:02;;;;;;;;;;;;;;;12.56;100.00;101337.38;5026166;28;20298;-74
2023/08/08 04:08:27;;;;;;;;;;;;;;;12.53;100.00;101329.53;5027103;28;20035;-75
2023/08/08 04:10:52;;;;;;;;;;;;;;;12.55;100.00;101334.78;5024381;28;20395;-73
2023/08/08 04:13:18;;;;;;;;;;;;;;;12.58;100.00;101330.00;5009881;28;20372;-74
2023/08/08 04:15:43;;;;;;;;;;;;;;;12.60;100.00;101327.22;5011197;28;20340;-73
2023/08/08 04:18:09;;;;;;;;;;;;;;;12.65;100.00;101325.00;5029038;28;20371;-72
2023/08/08 04:20:34;;;;;;;;;;;;;;;12.65;100.00;101327.72;5026565;28;20398;-73
2023/08/08 04:22:59;;;;;;;;;;;;;;;12.67;100.00;101322.19;5011273;28;19965;-72
2023/08/08 04:25:25;;;;;;;;;;;;;;;12.60;100.00;101327.22;5010996;28;20398;-73
2023/08/08 04:27:50;;;;;;;;;;;;;;;12.53;100.00;101328.66;4996163;28;20303;-73
2023/08/08 04:30:15;;;;;;;;;;;;;;;12.46;100.00;101325.59;5012472;28;20505;-73
2023/08/08 04:32:41;;;;;;;;;;;;;;;12.45;100.00;101324.72;4995807;28;19931;-73
2023/08/08 04:35:06;;;;;;;;;;;;;;;12.44;100.00;101327.56;5014796;28;20291;-74
2023/08/08 04:37:31;;;;;;;;;;;;;;;12.38;100.00;101306.47;5013209;28;20616;-73
2023/08/08 04:39:56;;;;;;;;;;;;;;;12.48;100.00;101320.06;5005406;28;19929;-73
2023/08/08 04:42:22;;;;;;;;;;;;;;;12.55;100.00;101329.41;5024308;28;19924;-72
2023/08/08 04:44:47;;;;;;;;;;;;;;;12.63;100.00;101323.41;5029204;28;20384;-72
2023/08/08 04:47:12;;;;;;;;;;;;;;;12.69;100.00;101325.63;5010993;28;20562;-73
2023/08/08 04:49:37;;;;;;;;;;;;;;;12.62;100.00;101327.94;5011285;28;19921;-74
2023/08/08 04:52:03;;;;;;;;;;;;;;;12.76;100.00;101324.16;5030516;28;20030;-72
2023/08/08 04:54:28;;;;;;;;;;;;;;;12.83;100.00;101325.41;5027108;28;19968;-73
2023/08/08 04:56:54;;;;;;;;;;;;;;;12.85;100.00;101327.94;5028391;28;20298;-73
2023/08/08 04:59:19;;;;;;;;;;;;;;;12.82;100.00;101328.19;5013342;28;19963;-73
2023/08/08 05:01:44;;;;;;;;;;;;;;;12.71;100.00;101324.50;5014319;28;20011;-74
2023/08/08 05:04:09;;;;;;;;;;;;;;;12.82;100.00;101321.00;4993715;28;19955;-73
2023/08/08 05:06:35;;;;;;;;;;;;;;;12.75;100.00;101325.97;5029165;28;20088;-73
2023/08/08 05:09:00;;;;;;;;;;;;;;;12.74;100.00;101324.25;5027796;28;20020;-75
2023/08/08 05:11:25;;;;;;;;;;;;;;;12.80;100.00;101320.25;5027328;28;19925;-74
2023/08/08 05:13:50;;;;;;;;;;;;;;;12.75;100.00;101325.13;5026635;28;19925;-74
2023/08/08 05:16:16;;;;;;;;;;;;;;;12.94;100.00;101319.16;5029306;28;19956;-73
2023/08/08 05:18:44;;;;;;;;;;;;;;;13.02;100.00;101319.38;5009007;28;19921;-74
2023/08/08 05:21:09;;;;;;;;;;;;;;;13.10;100.00;101320.59;5028001;28;19921;-74
2023/08/08 05:23:34;;;;;;;;;;;;;;;13.10;100.00;101315.19;5028511;28;20371;-74
2023/08/08 05:25:59;;;;;;;;;;;;;;;13.11;100.00;101311.53;5029817;28;20384;-74
2023/08/08 05:28:25;;;;;;;;;;;;;;;13.23;100.00;101312.34;4997997;28;20419;-73
2023/08/08 05:30:50;;;;;;;;;;;;;;;13.19;100.00;101312.59;5011946;28;20172;-75
2023/08/08 05:33:15;;;;;;;;;;;;;;;13.22;100.00;101311.50;5012807;28;19931;-74
2023/08/08 05:35:40;;;;;;;;;;;;;;;13.06;100.00;101311.91;5012700;28;20441;-74
2023/08/08 05:38:07;;;;;;;;;;;;;;;13.16;100.00;101317.41;5029714;28;19928;-74
2023/08/08 05:40:34;;;;;;;;;;;;;;;13.14;100.00;101322.06;5012108;28;19933;-73
2023/08/08 05:42:59;;;;;;;;;;;;;;;13.13;100.00;101326.56;5030609;28;19925;-74
2023/08/08 05:45:24;;;;;;;;;;;;;;;13.32;100.00;101328.63;5011016;28;19968;-74
2023/08/08 05:47:49;;;;;;;;;;;;;;;13.50;100.00;101318.22;5012607;28;19917;-74
2023/08/08 05:50:15;;;;;;;;;;;;;;;13.58;100.00;101320.25;5027759;28;19921;-74
2023/08/08 05:52:40;;;;;;;;;;;;;;;13.65;100.00;101315.22;5024299;28;20010;-75
2023/08/08 05:55:05;;;;;;;;;;;;;;;13.78;100.00;101310.50;5011537;28;20193;-73
2023/08/08 05:57:30;;;;;;;;;;;;;;;13.95;100.00;101316.31;5011619;28;19925;-74
2023/08/08 05:59:56;;;;;;;;;;;;;;;13.79;100.00;101314.94;5006931;28;19921;-74
2023/08/08 06:02:21;;;;;;;;;;;;;;;13.89;100.00;101320.41;5030872;28;19924;-74
2023/08/08 06:04:47;;;;;;;;;;;;;;;13.87;100.00;101326.94;5010008;28;19925;-73
2023/08/08 06:07:12;;;;;;;;;;;;;;;14.02;100.00;101325.63;5010312;28;20197;-72
2023/08/08 06:09:37;;;;;;;;;;;;;;;14.05;100.00;101319.09;5015905;28;19921;-73
2023/08/08 06:12:03;;;;;;;;;;;;;;;14.09;100.00;101320.53;5026345;28;19970;-72
2023/08/08 06:14:28;;;;;;;;;;;;;;;14.27;100.00;101319.97;5032491;28;20283;-72
2023/08/08 06:16:53;;;;;;;;;;;;;;;14.31;100.00;101321.41;5016703;28;20426;-72
2023/08/08 06:19:18;;;;;;;;;;;;;;;14.26;100.00;101316.41;5015867;28;19925;-74
2023/08/08 06:21:44;;;;;;;;;;;;;;;14.30;100.00;101325.13;5016111;28;20322;-72
2023/08/08 06:24:09;;;;;;;;;;;;;;;14.47;100.00;101323.63;5014820;28;20125;-73
2023/08/08 06:26:34;;;;;;;;;;;;;;;14.59;100.00;101330.69;5014572;28;19917;-74
2023/08/08 06:28:59;;;;;;;;;;;;;;;14.64;100.00;101331.16;5029750;28;19952;-72
2023/08/08 06:31:24;;;;;;;;;;;;;;;14.80;100.00;101335.22;5014724;28;19960;-73
2023/08/08 06:33:53;;;;;;;;;;;;;;;14.78;100.00;101329.09;5031749;28;19921;-73
2023/08/08 06:36:18;;;;;;;;;;;;;;;14.93;100.00;101333.16;5014233;28;19921;-75
2023/08/08 06:38:44;;;;;;;;;;;;;;;14.99;100.00;101324.47;5013592;28;19976;-74
2023/08/08 06:41:09;;;;;;;;;;;;;;;15.13;100.00;101325.94;5013427;28;20051;-73
2023/08/08 06:43:34;;;;;;;;;;;;;;;15.21;100.00;101337.94;5011062;28;20326;-74
2023/08/08 06:46:00;;;;;;;;;;;;;;;15.37;100.00;101332.00;5025871;28;19999;-73
2023/08/08 06:48:25;;;;;;;;;;;;;;;15.36;100.00;101333.00;5031780;28;20391;-74
2023/08/08 06:50:51;;;;;;;;;;;;;;;15.42;100.00;101333.28;5015537;28;19926;-75
2023/08/08 06:53:16;;;;;;;;;;;;;;;15.54;100.00;101336.72;5005394;28;19959;-74
2023/08/08 06:55:41;;;;;;;;;;;;;;;15.59;100.00;101339.88;5001116;28;19936;-74
2023/08/08 06:58:06;;;;;;;;;;;;;;;15.85;100.00;101331.19;4993653;28;19926;-75
2023/08/08 07:00:32;;;;;;;;;;;;;;;15.83;100.00;101329.66;5001887;28;19933;-72
2023/08/08 07:02:57;;;;;;;;;;;;;;;15.83;100.00;101332.34;5022247;28;19991;-73
2023/08/08 07:05:22;;;;;;;;;;;;;;;16.03;100.00;101333.22;5012789;28;20345;-73
2023/08/08 07:07:48;;;;;;;;;;;;;;;16.10;100.00;101339.78;5014534;28;20010;-73
2023/08/08 07:10:14;;;;;;;;;;;;;;;16.12;100.00;101334.22;5011838;28;19975;-74
2023/08/08 07:12:39;;;;;;;;;;;;;;;16.13;100.00;101325.94;5012554;28;19991;-72
2023/08/08 07:15:07;;;;;;;;;;;;;;;16.31;100.00;101333.31;5027388;28;20011;-72
2023/08/08 07:17:32;;;;;;;;;;;;;;;16.30;100.00;101331.63;5009497;28;20039;-73
2023/08/08 07:19:57;;;;;;;;;;;;;;;16.32;100.00;101325.06;5028546;28;19963;-74
2023/08/08 07:22:23;;;;;;;;;;;;;;;16.27;100.00;101332.78;5011553;28;20317;-71
2023/08/08 07:24:48;;;;;;;;;;;;;;;16.45;100.00;101330.19;5011017;28;20304;-75
2023/08/08 07:27:13;;;;;;;;;;;;;;;16.59;100.00;101337.00;5007781;28;20398;-74
2023/08/08 07:29:39;;;;;;;;;;;;;;;16.62;100.00;101333.97;4998251;28;20360;-72
2023/08/08 07:32:04;;;;;;;;;;;;;;;16.73;100.00;101330.25;5013271;28;19925;-72
2023/08/08 07:34:29;;;;;;;;;;;;;;;16.76;100.00;101329.94;5031707;28;20158;-71
2023/08/08 07:36:55;;;;;;;;;;;;;;;16.70;100.00;101324.25;4995772;28;20383;-71
2023/08/08 07:39:21;;;;;;;;;;;;;;;16.69;100.00;101320.69;5028275;28;19924;-72
2023/08/08 07:41:46;;;;;;;;;;;;;;;16.72;100.00;101320.41;5013433;28;20003;-74
2023/08/08 07:44:11;;;;;;;;;;;;;;;16.79;100.00;101323.34;5028009;28;19921;-71
2023/08/08 07:46:36;;;;;;;;;;;;;;;16.81;100.00;101324.06;5010856;28;20406;-74
2023/08/08 07:49:03;;;;;;;;;;;;;;;16.94;100.00;101319.16;5028051;28;20067;-72
2023/08/08 07:51:29;;;;;;;;;;;;;;;17.03;100.00;101311.16;5009867;28;19925;-71
2023/08/08 07:53:54;;;;;;;;;;;;;;;17.17;100.00;101307.06;5014148;28;19931;-71
2023/08/08 07:56:19;;;;;;;;;;;;;;;17.31;100.00;101309.28;5013222;28;19924;-71
2023/08/08 07:58:44;;;;;;;;;;;;;;;17.43;100.00;101307.22;5032065;28;20015;-71
2023/08/08 08:01:11;;;;;;;;;;;;;;;17.55;100.00;101302.41;5016160;28;20016;-75
2023/08/08 08:03:37;;;;;;;;;;;;;;;17.63;100.00;101293.50;5029318;28;19917;-72
2023/08/08 08:06:02;;;;;;;;;;;;;;;17.57;100.00;101302.25;4995860;28;19971;-71
2023/08/08 08:08:27;;;;;;;;;;;;;;;17.62;100.00;101298.06;5029668;28;19921;-72
2023/08/08 08:10:52;;;;;;;;;;;;;;;17.68;100.00;101297.44;5012398;28;19924;-71
2023/08/08 08:13:18;;;;;;;;;;;;;;;17.61;100.00;101303.66;5030295;28;19921;-72
2023/08/08 08:15:43;;;;;;;;;;;;;;;17.80;100.00;101303.47;5012758;28;19925;-72
2023/08/08 08:18:08;;;;;;;;;;;;;;;17.86;100.00;101299.31;5013854;28;19925;-71
2023/08/08 08:20:33;;;;;;;;;;;;;;;18.01;100.00;101296.91;5013856;28;20446;-72
2023/08/08 08:22:59;;;;;;;;;;;;;;;17.73;100.00;101299.72;5013667;28;20324;-71
2023/08/08 08:25:24;;;;;;;;;;;;;;;17.55;100.00;101305.13;4999139;28;20332;-70
2023/08/08 08:27:49;;;;;;;;;;;;;;;17.61;100.00;101292.78;5026319;28;19909;-71
2023/08/08 08:30:14;;;;;;;;;;;;;;;17.94;100.00;101298.53;5014934;28;20246;-72
2023/08/08 08:32:40;;;;;;;;;;;;;;;18.04;100.00;101301.19;5014941;28;19972;-75
2023/08/08 08:35:06;;;;;;;;;;;;;;;17.94;100.00;101293.94;5028196;28;20020;-72
2023/08/08 08:37:31;;;;;;;;;;;;;;;18.12;100.00;101296.66;5010363;28;19932;-72
2023/08/08 08:39:56;;;;;;;;;;;;;;;18.35;100.00;101301.56;5026151;28;20457;-71
2023/08/08 08:42:22;;;;;;;;;;;;;;;18.49;100.00;101300.13;5010859;28;20067;-71
2023/08/08 08:44:47;;;;;;;;;;;;;;;18.60;100.00;101296.28;5011091;28;19983;-74
2023/08/08 08:47:12;;;;;;;;;;;;;;;18.84;100.00;101301.00;5007245;28;19925;-73
2023/08/08 08:49:38;;;;;;;;;;;;;;;18.72;100.00;101299.56;5012098;28;19939;-76
2023/08/08 08:52:04;;;;;;;;;;;;;;;18.34;100.00;101308.00;5031093;28;19929;-78
2023/08/08 08:54:30;;;;;;;;;;;;;;;18.33;100.00;101291.88;5029311;28;19921;-72
2023/08/08 08:56:55;;;;;;;;;;;;;;;18.41;100.00;101292.78;5011473;28;19932;-72
2023/08/08 08:59:20;;;;;;;;;;;;;;;18.39;100.00;101285.81;5026746;28;19925;-72
2023/08/08 09:01:45;;;;;;;;;;;;;;;18.39;100.00;101302.97;5025013;28;20301;-72
2023/08/08 09:04:11;;;;;;;;;;;;;;;17.97;100.00;101300.94;5011452;28;19921;-74
2023/08/08 09:06:38;;;;;;;;;;;;;;;17.77;100.00;101297.53;5011681;28;19921;-72
2023/08/08 09:09:04;;;;;;;;;;;;;;;17.89;100.00;101303.56;5011008;28;20359;-71
2023/08/08 09:11:29;;;;;;;;;;;;;;;18.20;100.00;101308.59;5011731;28;19979;-74
2023/08/08 09:13:54;;;;;;;;;;;;;;;18.39;100.00;101296.69;5011897;28;19925;-74
2023/08/08 09:16:20;;;;;;;;;;;;;;;18.67;100.00;101296.50;5015010;28;19932;-74
2023/08/08 09:18:45;;;;;;;;;;;;;;;18.85;100.00;101294.53;5014447;28;20172;-72
2023/08/08 09:21:10;;;;;;;;;;;;;;;18.62;99.38;101291.53;5012203;28;20387;-74
2023/08/08 09:23:36;;;;;;;;;;;;;;;18.80;100.00;101288.75;5027579;28;19925;-72
2023/08/08 09:26:01;;;;;;;;;;;;;;;18.87;100.00;101286.22;5013917;28;20372;-75
2023/08/08 09:28:27;;;;;;;;;;;;;;;18.99;97.00;101281.34;5028252;28;20328;-74
2023/08/08 09:30:53;;;;;;;;;;;;;;;19.16;96.65;101298.59;5007505;28;20473;-75
2023/08/08 09:33:18;;;;;;;;;;;;;;;19.51;100.00;101295.78;5013709;28;19970;-72
2023/08/08 09:35:45;;;;;;;;;;;;;;;19.51;94.68;101298.50;5029358;28;19917;-72
2023/08/08 09:38:10;;;;;;;;;;;;;;;19.36;95.39;101291.00;5011820;28;19920;-72
2023/08/08 09:40:36;;;;;;;;;;;;;;;19.61;91.86;101296.50;5012125;28;20328;-71
2023/08/08 09:43:02;;;;;;;;;;;;;;;19.50;88.92;101300.41;5027901;28;19925;-73
2023/08/08 09:45:27;;;;;;;;;;;;;;;19.72;95.64;101298.03;5029521;28;19932;-75
2023/08/08 09:47:52;;;;;;;;;;;;;;;19.97;94.01;101295.34;5028699;28;19943;-71
2023/08/08 09:50:18;;;;;;;;;;;;;;;19.96;93.29;101288.19;5013314;28;20051;-71
2023/08/08 09:52:43;;;;;;;;;;;;;;;19.98;93.34;101295.19;5010662;28;19925;-71
2023/08/08 09:55:09;;;;;;;;;;;;;;;20.11;92.37;101307.44;5010431;28;20371;-71
2023/08/08 09:57:34;;;;;;;;;;;;;;;19.75;88.67;101303.16;5028126;28;20367;-71
2023/08/08 09:59:59;;;;;;;;;;;;;;;19.33;93.08;101294.06;5011814;28;19929;-72
2023/08/08 10:02:24;;;;;;;;;;;;;;;19.30;93.37;101297.97;4995969;28;20551;-74
2023/08/08 10:04:49;;;;;;;;;;;;;;;19.40;95.01;101296.97;5011989;28;19956;-71
2023/08/08 10:07:15;;;;;;;;;;;;;;;19.39;94.76;101323.34;5026561;28;19956;-72
2023/08/08 10:09:40;;;;;;;;;;;;;;;19.44;89.32;101309.22;5012964;28;19921;-75
2023/08/08 10:12:06;;;;;;;;;;;;;;;19.83;90.39;101305.03;5013052;28;20360;-75
2023/08/08 10:14:31;;;;;;;;;;;;;;;20.32;96.81;101302.28;5014081;28;20015;-76
2023/08/08 10:16:57;;;;;;;;;;;;;;;20.40;90.84;101312.34;5027201;28;20027;-73
2023/08/08 10:19:22;;;;;;;;;;;;;;;19.93;87.91;101316.66;5014363;28;20269;-73
2023/08/08 10:21:48;;;;;;;;;;;;;;;20.14;91.31;101305.22;5024547;28;19920;-71
2023/08/08 10:24:13;;;;;;;;;;;;;;;20.19;88.92;101304.72;5013703;28;21985;-71
2023/08/08 10:26:57;;;;;;;;;;;;;;;20.21;98.20;101308.13;5012408;28;19921;-72
2023/08/08 10:29:23;;;;;;;;;;;;;;;19.96;94.07;101308.13;5010415;28;19932;-72
2023/08/08 10:32:05;;;;;;;;;;;;;;;19.90;92.80;101308.81;5024348;28;19925;-72
2023/08/08 10:34:43;;;;;;;;;;;;;;;19.92;92.60;101315.78;5009270;28;20256;-72
2023/08/08 10:37:09;;;;;;;;;;;;;;;20.01;93.87;101310.34;5013511;28;19921;-73
2023/08/08 10:39:34;;;;;;;;;;;;;;;19.89;88.76;101323.44;5012051;28;19974;-73
2023/08/08 10:42:00;;;;;;;;;;;;;;;19.74;89.18;101309.63;5013652;28;20000;-75
2023/08/08 10:44:26;;;;;;;;;;;;;;;19.43;85.21;101327.44;5008277;28;20395;-82
2023/08/08 10:46:52;;;;;;;;;;;;;;;19.60;90.99;101311.13;5012174;28;19968;-72
2023/08/08 10:49:17;;;;;;;;;;;;;;;19.43;86.88;101313.84;5010090;28;19928;-72
2023/08/08 10:51:45;;;;;;;;;;;;;;;19.59;85.03;101317.59;5012010;28;19925;-70
2023/08/08 10:54:23;;;;;;;;;;;;;;;19.87;90.90;101309.94;5024035;28;19925;-72
2023/08/08 10:56:51;;;;;;;;;;;;;;;20.68;84.51;101304.63;5012217;28;20169;-71
2023/08/08 10:59:18;;;;;;;;;;;;;;;21.01;80.10;101306.41;5011648;28;19932;-71
2023/08/08 11:01:47;;;;;;;;;;;;;;;21.16;72.30;101308.38;5028944;28;19994;-72
2023/08/08 11:04:12;;;;;;;;;;;;;;;21.39;72.68;101308.41;5013688;28;19921;-71
2023/08/08 11:06:38;;;;;;;;;;;;;;;21.30;77.25;101304.88;5013913;28;19947;-71
2023/08/08 11:09:05;;;;;;;;;;;;;;;21.67;72.50;101314.25;5029991;28;19923;-71
2023/08/08 11:11:35;;;;;;;;;;;;;;;21.53;77.52;101302.19;5030581;28;20407;-70
2023/08/08 11:14:07;;;;;;;;;;;;;;;21.20;77.40;101302.38;5014683;28;20187;-73
2023/08/08 11:16:33;;;;;;;;;;;;;;;21.33;81.01;101314.59;5016383;28;20040;-72
2023/08/08 11:18:58;;;;;;;;;;;;;;;;;;5029969;28;20016;-72
2023/08/08 11:21:23;;;;;;;;;;;;;;;20.65;85.12;101294.03;5013258;28;20047;-72
2023/08/08 11:23:48;;;;;;;;;;;;;;;20.23;81.39;101298.75;5011995;28;20214;-74
2023/08/08 11:26:14;;;;;;;;;;;;;;;20.73;80.71;101293.16;5015557;28;19917;-72
2023/08/08 11:28:39;;;;;;;;;;;;;;;20.96;78.17;101297.88;5031104;28;19928;-78
2023/08/08 11:31:04;;;;;;;;;;;;;;;21.33;76.82;101296.34;5015199;28;20419;-73
2023/08/08 11:33:30;;;;;;;;;;;;;;;20.93;74.61;101296.38;5013521;28;19924;-73
2023/08/08 11:35:56;;;;;;;;;;;;;;;20.36;76.15;101298.22;5032433;28;19963;-73
2023/08/08 11:38:21;;;;;;;;;;;;;;;19.73;79.11;101291.56;5030084;28;19921;-74
2023/08/08 11:40:46;;;;;;;;;;;;;;;19.40;83.19;101299.69;5013311;28;19925;-72
2023/08/08 11:43:13;;;;;;;;;;;;;;;19.01;84.09;101303.81;5013604;28;19921;-74
2023/08/08 11:45:38;;;;;;;;;;;;;;;18.71;88.32;101308.75;5015366;28;19929;-73
2023/08/08 11:48:04;;;;;;;;;;;;;;;20.12;85.37;101296.38;5031151;28;19970;-73
2023/08/08 11:50:30;;;;;;;;;;;;;;;21.21;77.77;101303.22;5027852;28;19917;-75
2023/08/08 11:52:55;;;;;;;;;;;;;;;22.37;76.57;101283.22;5012896;28;20292;-71
2023/08/08 11:55:22;;;;;;;;;;;;;;;21.91;74.37;101287.75;5009687;28;19921;-76
2023/08/08 11:57:47;;;;;;;;;;;;;;;21.03;74.94;101290.69;5012728;28;19921;-74
2023/08/08 12:00:12;;;;;;;;;;;;;;;21.20;75.22;101294.19;5014524;28;19936;-75
2023/08/08 12:02:38;;;;;;;;;;;;;;;22.24;75.30;101294.81;5015556;28;19964;-71
2023/08/08 12:05:04;;;;;;;;;;;;;;;23.78;69.85;101288.59;5015305;28;19928;-72
2023/08/08 12:07:31;;;;;;;;;;;;;;;24.34;65.61;101289.72;5016541;28;20371;-72
2023/08/08 12:09:56;;;;;;;;;;;;;;;24.11;62.27;101290.78;5013430;28;19921;-71
2023/08/08 12:12:21;;;;;;;;;;;;;;;23.69;56.46;101294.41;5014407;28;19925;-76
2023/08/08 12:14:47;;;;;;;;;;;;;;;23.71;54.96;101287.69;5028724;28;19928;-72
2023/08/08 12:17:12;;;;;;;;;;;;;;;24.20;57.15;101288.78;5029818;28;19924;-75
2023/08/08 12:19:37;;;;;;;;;;;;;;;23.60;54.11;101293.66;5016608;28;20751;-74
2023/08/08 12:22:02;;;;;;;;;;;;;;;23.96;56.83;101292.75;5031522;28;19917;-71